Historyczne dane pomiarowe

Dodano dane terminowe – wersja testowa.

Dane z okresu 1951-2019

Wersja bazy: 1.34 [2019-03-16, lista zmian], aktualizacja planowana na 2019-04-15

Dane meteo z obszaru Polski uzyskane na podstawie danych udostępnionych przez Instytut Meteorologii i Gospodarki Wodnej – Państwowy Instytut Badawczy.

 

Wybierz Datę:    

       

TemperaturaWilgotnośćWiatrCiśnienieOpadyŚniegCzas trwania zjawisk
 Stacja t tx tn tng RH VA  wxwx mslp ppp RRR   cm mm wxwxwxwxwxwxwx
1986-12-13 -3.6 -2.9 -5.0 -6.6 87.8- 8.0 1.0---- 0.0------------
1986-12-14 -3.8 -2.6 -4.6 -7.4 87.0- 6.7 2.0---- 0.4------------
1986-12-15 -0.3 1.1 -4.6 -5.0 93.8- 8.0 1.3---- 0.0------------
1986-12-16 -0.6 0.1 -1.0 -2.0 92.5- 8.0 2.3---- 1.0------------
1986-12-17 0.8 2.0 -0.8 -3.4 87.8- 7.7 6.7---- 0.1------------
1986-12-18 0.8 1.6 -0.9 -0.8 91.8- 8.0 4.3---- 1.9------------
1986-12-19 0.8 2.2 -0.9 -1.0 90.8- 7.7 6.0---- 6.2-- 1---------
1986-12-20 0.1 1.5 -1.0 -3.2 92.5- 8.0 7.3---- 2.3-- 8---------
1986-12-21 -4.4 -1.0 -6.2 -8.9 78.8- 4.0 6.3---- 0.0-- 7---------
1986-12-22 -6.5 -4.5 -8.8-11.6 83.8- 8.0 4.7---- 4.9-- 7---------
1986-12-23 -4.8 -4.3 -5.5 -6.2 90.0- 7.3 1.3---- 0.6-- 12---------
1986-12-24 -5.6 -3.5 -7.9-12.1 89.3- 8.0 0.3---- 0.2-- 12---------
1986-12-25 -9.5 -7.9-10.5-11.1 91.3- 8.0 1.0---- 0.0-- 12---------
1986-12-26-12.1-10.5-13.4-14.6 88.0- 8.0 2.7---- 0.1-- 12---------
1986-12-27-10.5 -5.6-14.8-16.8 89.3- 8.0 2.7---- 1.7-- 12---------
1986-12-28 -1.6 -0.4 -5.9 -6.5 93.8- 8.0 3.7---- 3.8-- 14---------
1986-12-29 -0.9 3.6 -4.0 -5.9 89.8- 8.0 4.0---- 5.0-- 18---------
1986-12-30 -0.6 2.2 -3.2 -7.4 76.3- 7.3 10.0---- 0.5-- 15---------
1986-12-31 -4.5 -1.6 -8.0-11.3 89.0- 8.0 1.3---- 1.4-- 15---------
1987-01-01 -1.9 0.0 -5.1 -7.5 91.5- 8.0 1.3---- 2.9-- 15---------
1987-01-02-10.6 -5.1-12.0-12.4 82.3- 8.0 3.3---- 0.1-- 16---------
1987-01-03-14.9 -7.9-22.0-26.2 80.3- 5.0 3.0---- 0.2-- 16---------
1987-01-04 -9.2 -6.1-15.1-21.9 84.0- 6.7 2.3---- 0.1-- 17---------
1987-01-05 -7.4 -2.0-15.1-17.9 91.8- 8.0 3.0---- 4.7-- 17---------
1987-01-06 -0.9 0.5 -2.2 -5.2 91.0- 8.0 1.0---- 4.3-- 24---------
1987-01-07-19.8 -1.8-26.2-35.2 78.0- 2.7 1.3---- 0.0-- 34---------
1987-01-08-24.6-18.6-34.0-39.5 76.0- 4.7 1.7---- 0.4-- 34---------
1987-01-09-16.2-12.1-19.7-30.5 83.8- 8.0 3.7---- 1.1-- 34---------
1987-01-10-26.7-17.8-28.7-37.0 86.3- 6.0 0.3---- 0.0-- 34---------
1987-01-11-24.5-18.9-32.6-38.2 85.0- 8.0 2.3---- 2.0-- 34---------
404.0 ms

 

Źródłem pochodzenia danych jest Instytut Meteorologii i Gospodarki Wodnej – Państwowy Instytut Badawczy. Dane Instytutu Meteorologii i Gospodarki Wodnej – Państwowego Instytutu Badawczego zostały przetworzone.

Dane źródłowe można odnaleźć na stronie https://dane.imgw.pl